Time,TemperatureF,DewpointF,PressureIn,WindDirection,WindDirectionDegrees,WindSpeedMPH,WindSpeedGustMPH,Humidity,HourlyPrecipIn,Conditions,Clouds,dailyrainin,SoftwareType,DateUTC
2012-04-22 00:01:00,48.8,46.6,29.94,NE,35,0.0,0.0,92,0.00,,,0.00,VWS V13.01,2012-04-22 05:01:00,
2012-04-22 00:06:00,48.5,46.2,29.94,NE,35,0.0,0.0,92,0.00,,,0.00,VWS V13.01,2012-04-22 05:06:00,
2012-04-22 00:11:00,48.3,46.1,29.94,NE,35,0.0,0.0,92,0.00,,,0.00,VWS V13.01,2012-04-22 05:11:00,
2012-04-22 00:16:00,48.1,45.6,29.94,NE,35,0.0,0.0,91,0.00,,,0.00,VWS V13.01,2012-04-22 05:16:00,
2012-04-22 00:21:00,47.9,45.4,29.94,NE,35,0.0,0.0,91,0.00,,,0.00,VWS V13.01,2012-04-22 05:21:00,
2012-04-22 00:26:00,47.7,45.2,29.94,NE,35,0.0,0.0,91,0.00,,,0.00,VWS V13.01,2012-04-22 05:26:00,
2012-04-22 00:31:00,47.6,45.4,29.94,NE,35,0.0,0.0,92,0.00,,,0.00,VWS V13.01,2012-04-22 05:31:00,
2012-04-22 00:36:00,47.6,45.6,29.94,NE,35,0.0,0.0,93,0.00,,,0.00,VWS V13.01,2012-04-22 05:36:00,
2012-04-22 00:41:00,47.4,45.7,29.94,NE,35,0.0,0.0,94,0.00,,,0.00,VWS V13.01,2012-04-22 05:41:00,
2012-04-22 00:46:00,47.4,46.3,29.94,NE,35,0.0,0.0,96,0.00,,,0.00,VWS V13.01,2012-04-22 05:46:00,
2012-04-22 00:51:00,47.4,46.8,29.94,NE,35,0.0,0.0,98,0.00,,,0.00,VWS V13.01,2012-04-22 05:51:00,
2012-04-22 00:56:00,47.4,47.1,29.94,NE,35,0.0,0.0,99,0.00,,,0.00,VWS V13.01,2012-04-22 05:56:00,
2012-04-22 01:01:00,47.2,46.9,29.94,NE,35,0.0,0.0,99,0.00,,,0.00,VWS V13.01,2012-04-22 06:01:00,
2012-04-22 01:06:00,47.2,46.9,29.94,NW,318,0.0,0.0,99,0.00,,,0.00,VWS V13.01,2012-04-22 06:06:00,
2012-04-22 01:11:00,47.0,46.8,29.94,NW,318,0.0,0.0,99,0.00,,,0.00,VWS V13.01,2012-04-22 06:11:00,
2012-04-22 01:16:00,46.8,46.6,29.94,NW,318,0.0,0.0,99,0.00,,,0.00,VWS V13.01,2012-04-22 06:16:00,
2012-04-22 01:21:00,46.8,46.6,29.94,NW,318,0.0,0.0,99,0.00,,,0.00,VWS V13.01,2012-04-22 06:21:00,
2012-04-22 01:26:00,46.7,46.1,29.94,NW,318,0.0,0.0,98,0.00,,,0.00,VWS V13.01,2012-04-22 06:26:00,
2012-04-22 01:31:00,46.5,46.0,29.94,NW,318,0.0,0.0,98,0.00,,,0.00,VWS V13.01,2012-04-22 06:31:00,
2012-04-22 01:36:00,46.3,45.8,29.94,NW,318,0.0,0.0,98,0.00,,,0.00,VWS V13.01,2012-04-22 06:36:00,
2012-04-22 01:41:00,46.3,45.8,29.94,NW,318,0.0,0.0,98,0.00,,,0.00,VWS V13.01,2012-04-22 06:41:00,
2012-04-22 01:46:00,46.1,45.9,29.94,NW,318,0.0,0.0,99,0.00,,,0.00,VWS V13.01,2012-04-22 06:46:00,
2012-04-22 01:51:00,45.9,45.7,29.94,NW,318,0.0,0.0,99,0.00,,,0.00,VWS V13.01,2012-04-22 06:51:00,
2012-04-22 01:56:00,45.9,45.7,29.94,NNE,29,0.0,0.0,99,0.00,,,0.00,VWS V13.01,2012-04-22 06:56:00,
2012-04-22 02:01:00,45.6,45.3,29.94,NNE,33,0.0,0.0,99,0.00,,,0.00,VWS V13.01,2012-04-22 07:01:00,
2012-04-22 02:06:00,45.4,45.1,29.94,NNE,33,0.0,0.0,99,0.00,,,0.00,VWS V13.01,2012-04-22 07:06:00,
2012-04-22 02:11:00,45.2,45.2,29.94,NNE,33,0.0,0.0,100,0.00,,,0.00,VWS V13.01,2012-04-22 07:11:00,
2012-04-22 02:16:00,45.0,45.0,29.94,NNE,33,0.0,0.0,100,0.00,,,0.00,VWS V13.01,2012-04-22 07:16:00,
2012-04-22 02:21:00,44.9,44.9,29.94,NNE,33,0.0,0.0,100,0.00,,,0.00,VWS V13.01,2012-04-22 07:21:00,
2012-04-22 02:26:00,44.9,44.9,29.94,NNE,33,0.0,0.0,100,0.00,,,0.00,VWS V13.01,2012-04-22 07:26:00,
2012-04-22 02:31:00,44.9,44.9,29.94,NE,48,0.0,0.0,100,0.00,,,0.00,VWS V13.01,2012-04-22 07:31:00,
2012-04-22 02:36:00,44.9,44.9,29.94,NE,47,0.0,0.0,100,0.00,,,0.00,VWS V13.01,2012-04-22 07:36:00,
2012-04-22 02:41:00,44.9,44.9,29.94,NE,48,0.0,0.0,100,0.00,,,0.00,VWS V13.01,2012-04-22 07:41:00,
2012-04-22 02:47:00,44.7,44.7,29.94,NE,47,0.0,0.0,100,0.00,,,0.00,VWS V13.01,2012-04-22 07:47:00,
2012-04-22 02:51:00,44.5,44.5,29.94,NE,47,0.0,0.0,100,0.00,,,0.00,VWS V13.01,2012-04-22 07:51:00,
2012-04-22 02:56:00,44.5,44.5,29.94,NE,47,0.0,0.0,100,0.00,,,0.00,VWS V13.01,2012-04-22 07:56:00,
2012-04-22 03:02:00,44.3,44.3,29.94,NE,47,0.0,0.0,100,0.00,,,0.00,VWS V13.01,2012-04-22 08:02:00,
2012-04-22 03:07:00,44.3,44.3,29.94,NE,47,0.0,0.0,100,0.00,,,0.00,VWS V13.01,2012-04-22 08:07:00,
2012-04-22 03:12:00,44.1,44.1,29.94,NE,48,0.0,0.0,100,0.00,,,0.00,VWS V13.01,2012-04-22 08:12:00,
2012-04-22 03:17:00,44.1,44.1,29.94,NE,47,0.0,0.0,100,0.00,,,0.00,VWS V13.01,2012-04-22 08:17:00,
2012-04-22 03:22:00,44.1,44.1,29.94,NE,47,0.0,0.0,100,0.00,,,0.00,VWS V13.01,2012-04-22 08:22:00,
2012-04-22 03:27:00,43.8,43.8,29.94,NE,47,0.0,0.0,100,0.00,,,0.00,VWS V13.01,2012-04-22 08:27:00,
2012-04-22 03:32:00,43.8,43.8,29.94,NE,47,0.0,0.0,100,0.00,,,0.00,VWS V13.01,2012-04-22 08:32:00,
2012-04-22 03:37:00,43.6,43.6,29.94,NE,47,0.0,0.0,100,0.00,,,0.00,VWS V13.01,2012-04-22 08:37:00,
2012-04-22 03:42:00,43.6,43.6,29.94,NE,48,0.0,0.0,100,0.00,,,0.00,VWS V13.01,2012-04-22 08:42:00,
2012-04-22 03:47:00,43.4,43.4,29.94,NE,47,0.0,0.0,100,0.00,,,0.00,VWS V13.01,2012-04-22 08:47:00,
2012-04-22 03:53:00,43.4,43.4,29.94,NE,48,0.0,0.0,100,0.00,,,0.00,VWS V13.01,2012-04-22 08:53:00,
2012-04-22 03:58:00,43.4,43.4,29.94,NE,47,0.0,0.0,100,0.00,,,0.00,VWS V13.01,2012-04-22 08:58:00,
2012-04-22 04:03:00,43.4,43.4,29.94,NE,48,0.0,0.0,100,0.00,,,0.00,VWS V13.01,2012-04-22 09:03:00,
2012-04-22 04:08:00,43.4,43.4,29.94,NE,48,0.0,0.0,100,0.00,,,0.00,VWS V13.01,2012-04-22 09:08:00,
2012-04-22 04:13:00,43.4,43.4,29.94,NE,47,0.0,0.0,100,0.00,,,0.00,VWS V13.01,2012-04-22 09:13:00,
2012-04-22 04:18:00,43.2,43.2,29.94,NE,48,0.0,0.0,100,0.00,,,0.00,VWS V13.01,2012-04-22 09:18:00,
2012-04-22 04:23:00,43.2,43.2,29.94,NE,47,0.0,0.0,100,0.00,,,0.00,VWS V13.01,2012-04-22 09:23:00,
2012-04-22 04:28:00,43.1,43.1,29.94,NE,48,0.0,0.0,100,0.00,,,0.00,VWS V13.01,2012-04-22 09:28:00,
2012-04-22 04:33:00,42.9,42.9,29.94,NE,47,0.0,0.0,100,0.00,,,0.00,VWS V13.01,2012-04-22 09:33:00,
2012-04-22 04:38:00,42.7,42.7,29.94,NE,48,0.0,0.0,100,0.00,,,0.00,VWS V13.01,2012-04-22 09:38:00,
2012-04-22 04:43:00,42.7,42.7,29.94,NE,47,0.0,0.0,100,0.00,,,0.00,VWS V13.01,2012-04-22 09:43:00,
2012-04-22 04:48:00,42.5,42.5,29.94,NE,48,0.0,0.0,100,0.00,,,0.00,VWS V13.01,2012-04-22 09:48:00,
2012-04-22 04:53:00,42.3,42.3,29.94,NE,47,0.0,0.0,100,0.00,,,0.00,VWS V13.01,2012-04-22 09:53:00,
2012-04-22 04:58:00,42.3,42.3,29.94,NE,48,0.0,0.0,100,0.00,,,0.00,VWS V13.01,2012-04-22 09:58:00,
2012-04-22 05:03:00,42.3,42.3,29.94,NE,47,0.0,0.0,100,0.00,,,0.00,VWS V13.01,2012-04-22 10:03:00,
2012-04-22 05:08:00,42.3,42.3,29.94,NE,47,0.0,0.0,100,0.00,,,0.00,VWS V13.01,2012-04-22 10:08:00,
2012-04-22 05:13:00,42.3,42.3,29.94,NE,48,0.0,0.0,100,0.00,,,0.00,VWS V13.01,2012-04-22 10:13:00,
2012-04-22 05:18:00,42.3,42.3,29.94,NE,48,0.0,0.0,100,0.00,,,0.00,VWS V13.01,2012-04-22 10:18:00,
2012-04-22 05:23:00,42.3,42.3,29.94,NE,48,0.0,0.0,100,0.00,,,0.00,VWS V13.01,2012-04-22 10:23:00,
2012-04-22 05:28:00,42.2,42.2,29.94,NE,47,0.0,0.0,100,0.00,,,0.00,VWS V13.01,2012-04-22 10:28:00,
2012-04-22 05:33:00,42.2,42.2,29.94,NE,47,0.0,0.0,100,0.00,,,0.00,VWS V13.01,2012-04-22 10:33:00,
2012-04-22 05:38:00,42.2,42.2,29.94,NE,47,0.0,0.0,100,0.00,,,0.00,VWS V13.01,2012-04-22 10:38:00,
2012-04-22 05:43:00,42.2,42.2,29.94,NE,47,0.0,0.0,100,0.00,,,0.00,VWS V13.01,2012-04-22 10:43:00,
2012-04-22 05:48:00,42.2,42.2,29.94,NE,48,0.0,0.0,100,0.00,,,0.00,VWS V13.01,2012-04-22 10:48:00,
2012-04-22 05:53:00,42.2,42.2,29.94,NE,47,0.0,0.0,100,0.00,,,0.00,VWS V13.01,2012-04-22 10:53:00,
2012-04-22 05:58:00,42.0,42.0,29.94,NE,47,0.0,0.0,100,0.00,,,0.00,VWS V13.01,2012-04-22 10:58:00,
2012-04-22 06:03:00,42.0,42.0,29.94,NE,48,0.0,0.0,100,0.00,,,0.00,VWS V13.01,2012-04-22 11:03:00,
2012-04-22 06:08:00,42.0,42.0,29.94,NNE,33,0.0,0.0,100,0.00,,,0.00,VWS V13.01,2012-04-22 11:08:00,
2012-04-22 06:13:00,41.8,41.8,29.94,NNE,33,0.0,0.0,100,0.00,,,0.00,VWS V13.01,2012-04-22 11:13:00,
2012-04-22 06:18:00,41.8,41.8,29.94,NNE,33,0.0,0.0,100,0.00,,,0.00,VWS V13.01,2012-04-22 11:18:00,
2012-04-22 06:23:00,41.6,41.6,29.94,NNE,33,0.0,0.0,100,0.00,,,0.00,VWS V13.01,2012-04-22 11:23:00,
2012-04-22 06:28:00,41.6,41.6,29.94,NNE,33,0.0,0.0,100,0.00,,,0.00,VWS V13.01,2012-04-22 11:28:00,
2012-04-22 06:33:00,41.6,41.6,29.94,NNE,33,0.0,0.0,100,0.00,,,0.00,VWS V13.01,2012-04-22 11:33:00,
2012-04-22 06:38:00,41.6,41.6,29.94,NNE,33,0.0,0.0,100,0.00,,,0.00,VWS V13.01,2012-04-22 11:38:00,
2012-04-22 06:43:00,41.6,41.6,29.94,NNE,28,0.0,0.0,100,0.00,,,0.00,VWS V13.01,2012-04-22 11:43:00,
2012-04-22 06:48:00,41.6,41.6,29.94,NNE,29,0.0,0.0,100,0.00,,,0.00,VWS V13.01,2012-04-22 11:48:00,
2012-04-22 06:53:00,41.6,41.6,29.94,NNE,28,0.0,0.0,100,0.00,,,0.00,VWS V13.01,2012-04-22 11:53:00,
2012-04-22 06:58:00,41.6,41.6,29.94,NNE,28,0.0,0.0,100,0.00,,,0.00,VWS V13.01,2012-04-22 11:58:00,
2012-04-22 07:03:00,41.8,41.8,29.94,NNE,28,0.0,0.0,100,0.00,,,0.00,VWS V13.01,2012-04-22 12:03:00,
2012-04-22 07:08:00,41.8,41.8,29.94,NNE,28,0.0,0.0,100,0.00,,,0.00,VWS V13.01,2012-04-22 12:08:00,
2012-04-22 07:13:00,42.0,42.0,29.94,NNW,343,0.0,0.0,100,0.00,,,0.00,VWS V13.01,2012-04-22 12:13:00,
2012-04-22 07:18:00,42.2,42.2,29.94,NNW,343,0.0,0.0,100,0.00,,,0.00,VWS V13.01,2012-04-22 12:18:00,
2012-04-22 07:23:00,42.5,42.5,29.94,NNW,343,0.0,0.0,100,0.00,,,0.00,VWS V13.01,2012-04-22 12:23:00,
2012-04-22 07:28:00,42.9,42.9,29.94,SSW,202,0.0,0.0,100,0.00,,,0.00,VWS V13.01,2012-04-22 12:28:00,
2012-04-22 07:33:00,43.1,43.1,29.97,SSW,201,0.0,0.0,100,0.00,,,0.00,VWS V13.01,2012-04-22 12:33:00,
2012-04-22 07:38:00,43.6,43.6,29.97,SSW,202,0.0,0.0,100,0.00,,,0.00,VWS V13.01,2012-04-22 12:38:00,
2012-04-22 07:43:00,44.1,44.1,29.97,SW,220,0.0,0.0,100,0.00,,,0.00,VWS V13.01,2012-04-22 12:43:00,
2012-04-22 07:48:00,44.9,44.9,29.97,SW,227,0.0,0.0,100,0.00,,,0.00,VWS V13.01,2012-04-22 12:48:00,
2012-04-22 07:53:00,45.6,45.6,29.97,WSW,237,0.0,0.0,100,0.00,,,0.00,VWS V13.01,2012-04-22 12:53:00,
2012-04-22 07:58:00,46.3,46.3,29.97,WSW,253,2.2,2.2,100,0.00,,,0.00,VWS V13.01,2012-04-22 12:58:00,
2012-04-22 08:03:00,47.2,47.2,29.97,WSW,251,2.7,2.7,100,0.00,,,0.00,VWS V13.01,2012-04-22 13:03:00,
2012-04-22 08:08:00,47.9,47.9,29.97,SSE,163,2.7,2.7,100,0.00,,,0.00,VWS V13.01,2012-04-22 13:08:00,
2012-04-22 08:13:00,48.6,48.6,29.97,SSE,160,0.0,0.0,100,0.00,,,0.00,VWS V13.01,2012-04-22 13:13:00,
2012-04-22 08:18:00,49.2,49.2,29.97,South,187,0.0,0.0,100,0.00,,,0.00,VWS V13.01,2012-04-22 13:18:00,
2012-04-22 08:23:00,49.7,49.7,29.97,SW,230,0.0,3.1,100,0.00,,,0.00,VWS V13.01,2012-04-22 13:23:00,
2012-04-22 08:28:00,50.1,50.1,29.97,South,169,3.6,3.6,100,0.00,,,0.00,VWS V13.01,2012-04-22 13:28:00,
2012-04-22 08:33:00,50.6,50.6,29.97,SSW,192,2.7,3.6,100,0.00,,,0.00,VWS V13.01,2012-04-22 13:33:00,
2012-04-22 08:38:00,51.5,50.7,29.97,SSE,153,0.0,0.0,97,0.00,,,0.00,VWS V13.01,2012-04-22 13:38:00,
2012-04-22 08:43:00,52.4,50.8,29.97,West,271,3.6,3.6,94,0.00,,,0.00,VWS V13.01,2012-04-22 13:43:00,
2012-04-22 08:48:00,57.8,43.2,29.97,NW,315,5.4,6.3,58,0.00,,,0.00,VWS V13.01,2012-04-22 13:48:00,
2012-04-22 08:53:00,60.2,42.0,29.97,NW,318,4.0,8.7,51,0.00,,,0.00,VWS V13.01,2012-04-22 13:53:00,
2012-04-22 08:58:00,60.9,41.6,29.97,West,280,6.3,7.6,49,0.00,,,0.00,VWS V13.01,2012-04-22 13:58:00,
2012-04-22 09:03:00,61.4,41.0,29.97,NW,309,7.6,8.3,47,0.00,,,0.00,VWS V13.01,2012-04-22 14:03:00,
2012-04-22 09:09:00,62.0,41.5,29.97,WNW,295,8.3,8.3,47,0.00,,,0.00,VWS V13.01,2012-04-22 14:09:00,
2012-04-22 09:14:00,62.1,41.7,29.97,WNW,293,5.8,5.8,47,0.00,,,0.00,VWS V13.01,2012-04-22 14:14:00,
2012-04-22 09:18:00,62.7,41.6,29.94,NW,308,10.1,10.1,46,0.00,,,0.00,VWS V13.01,2012-04-22 14:18:00,
2012-04-22 09:24:00,63.2,42.1,29.94,WNW,294,8.7,8.7,46,0.00,,,0.00,VWS V13.01,2012-04-22 14:24:00,
2012-04-22 09:29:00,63.2,42.1,29.94,NW,309,4.0,6.3,46,0.00,,,0.00,VWS V13.01,2012-04-22 14:29:00,
2012-04-22 09:34:00,63.4,39.9,29.94,NW,319,7.6,9.6,42,0.00,,,0.00,VWS V13.01,2012-04-22 14:34:00,
2012-04-22 09:39:00,64.1,41.8,29.94,NW,305,4.9,8.1,44,0.00,,,0.00,VWS V13.01,2012-04-22 14:39:00,
2012-04-22 09:44:00,64.1,41.2,29.94,NW,322,4.0,7.6,43,0.00,,,0.00,VWS V13.01,2012-04-22 14:44:00,
2012-04-22 09:49:00,64.5,40.9,29.94,SW,232,5.8,9.6,42,0.00,,,0.00,VWS V13.01,2012-04-22 14:49:00,
2012-04-22 09:55:00,64.5,40.3,29.94,SW,230,6.3,8.7,41,0.00,,,0.00,VWS V13.01,2012-04-22 14:55:00,
2012-04-22 10:00:00,64.7,40.4,29.94,WNW,302,7.6,8.7,41,0.00,,,0.00,VWS V13.01,2012-04-22 15:00:00,
2012-04-22 10:05:00,64.5,39.7,29.94,NW,308,12.8,12.8,40,0.00,,,0.00,VWS V13.01,2012-04-22 15:05:00,
2012-04-22 10:10:00,64.8,40.0,29.94,WNW,303,4.0,7.6,40,0.00,,,0.00,VWS V13.01,2012-04-22 15:10:00,
2012-04-22 10:15:00,64.5,39.0,29.94,NW,315,8.1,8.1,39,0.00,,,0.00,VWS V13.01,2012-04-22 15:15:00,
2012-04-22 10:20:00,64.7,39.2,29.94,WNW,288,5.8,8.1,39,0.00,,,0.00,VWS V13.01,2012-04-22 15:20:00,
2012-04-22 10:26:00,64.3,38.2,29.94,WSW,250,15.4,15.4,38,0.00,,,0.00,VWS V13.01,2012-04-22 15:26:00,
2012-04-22 10:31:00,64.3,38.2,29.94,WSW,239,6.3,8.1,38,0.00,,,0.00,VWS V13.01,2012-04-22 15:31:00,
2012-04-22 10:36:00,64.7,37.1,29.94,WSW,243,10.5,10.5,36,0.00,,,0.00,VWS V13.01,2012-04-22 15:36:00,
2012-04-22 10:41:00,64.8,37.3,29.94,WSW,241,14.1,17.0,36,0.00,,,0.00,VWS V13.01,2012-04-22 15:41:00,
2012-04-22 10:46:00,64.7,36.4,29.94,WSW,252,10.5,14.5,35,0.00,,,0.00,VWS V13.01,2012-04-22 15:46:00,
2012-04-22 10:51:00,64.8,36.6,29.94,WNW,285,17.9,17.9,35,0.00,,,0.00,VWS V13.01,2012-04-22 15:51:00,
2012-04-22 10:56:00,64.7,34.2,29.94,NW,313,13.2,13.2,32,0.00,,,0.00,VWS V13.01,2012-04-22 15:56:00,
2012-04-22 11:01:00,65.0,34.5,29.94,WSW,237,8.7,15.0,32,0.00,,,0.00,VWS V13.01,2012-04-22 16:01:00,
2012-04-22 11:06:00,65.4,34.8,29.94,NW,308,8.7,15.4,32,0.00,,,0.00,VWS V13.01,2012-04-22 16:06:00,
2012-04-22 11:11:00,65.4,34.8,29.94,West,272,6.3,15.0,32,0.00,,,0.00,VWS V13.01,2012-04-22 16:11:00,
2012-04-22 11:16:00,65.0,34.5,29.97,West,274,13.2,13.2,32,0.00,,,0.00,VWS V13.01,2012-04-22 16:16:00,
2012-04-22 11:21:00,65.4,36.3,29.97,WNW,291,8.7,11.4,34,0.00,,,0.00,VWS V13.01,2012-04-22 16:21:00,
2012-04-22 11:26:00,65.2,34.6,29.97,West,261,6.7,19.2,32,0.00,,,0.00,VWS V13.01,2012-04-22 16:26:00,
2012-04-22 11:31:00,65.4,34.8,29.97,WNW,295,6.7,6.7,32,0.00,,,0.00,VWS V13.01,2012-04-22 16:31:00,
2012-04-22 11:36:00,65.6,36.5,29.97,WSW,253,12.8,12.8,34,0.00,,,0.00,VWS V13.01,2012-04-22 16:36:00,
2012-04-22 11:41:00,65.2,36.2,29.97,WSW,245,10.1,10.1,34,0.00,,,0.00,VWS V13.01,2012-04-22 16:41:00,
2012-04-22 11:46:00,65.9,37.5,29.97,West,263,7.6,10.5,35,0.00,,,0.00,VWS V13.01,2012-04-22 16:46:00,
2012-04-22 11:52:00,66.5,37.3,29.97,West,275,7.6,12.8,34,0.00,,,0.00,VWS V13.01,2012-04-22 16:52:00,
2012-04-22 11:57:00,66.3,37.1,29.97,WSW,239,8.3,11.9,34,0.00,,,0.00,VWS V13.01,2012-04-22 16:57:00,
2012-04-22 12:02:00,66.1,36.9,29.97,NW,313,11.0,13.2,34,0.00,,,0.00,VWS V13.01,2012-04-22 17:02:00,
2012-04-22 12:07:00,66.5,37.3,29.97,West,277,10.1,10.1,34,0.00,,,0.00,VWS V13.01,2012-04-22 17:07:00,
2012-04-22 12:12:00,66.5,37.3,29.97,NW,309,8.3,8.3,34,0.00,,,0.00,VWS V13.01,2012-04-22 17:12:00,
2012-04-22 12:17:00,66.6,38.2,29.97,NW,317,7.6,15.0,35,0.00,,,0.00,VWS V13.01,2012-04-22 17:17:00,
2012-04-22 12:22:00,66.3,37.8,29.97,WNW,288,8.3,11.9,35,0.00,,,0.00,VWS V13.01,2012-04-22 17:22:00,
2012-04-22 12:27:00,67.2,37.9,29.97,NW,324,3.1,8.7,34,0.00,,,0.00,VWS V13.01,2012-04-22 17:27:00,
2012-04-22 12:32:00,67.0,37.7,29.97,WNW,291,8.3,10.1,34,0.00,,,0.00,VWS V13.01,2012-04-22 17:32:00,
2012-04-22 12:38:00,66.1,37.7,29.97,WNW,293,8.1,8.7,35,0.00,,,0.00,VWS V13.01,2012-04-22 17:38:00,
2012-04-22 12:43:00,66.5,37.3,29.97,West,280,8.3,11.4,34,0.00,,,0.00,VWS V13.01,2012-04-22 17:43:00,
2012-04-22 12:48:00,66.3,37.8,29.97,WNW,303,8.3,11.0,35,0.00,,,0.00,VWS V13.01,2012-04-22 17:48:00,
2012-04-22 12:53:00,65.6,36.5,29.97,WNW,294,10.1,12.8,34,0.00,,,0.00,VWS V13.01,2012-04-22 17:53:00,
2012-04-22 12:58:00,66.3,37.8,29.97,West,262,8.1,8.3,35,0.00,,,0.00,VWS V13.01,2012-04-22 17:58:00,
2012-04-22 13:03:00,65.9,37.5,29.97,WSW,246,8.3,8.3,35,0.00,,,0.00,VWS V13.01,2012-04-22 18:03:00,
2012-04-22 13:08:00,65.9,37.5,29.97,NW,314,7.6,7.6,35,0.00,,,0.00,VWS V13.01,2012-04-22 18:08:00,
2012-04-22 13:13:00,66.1,37.7,29.97,NW,304,8.1,10.5,35,0.00,,,0.00,VWS V13.01,2012-04-22 18:13:00,
2012-04-22 13:18:00,66.1,37.7,29.97,West,269,12.3,12.3,35,0.00,,,0.00,VWS V13.01,2012-04-22 18:18:00,
2012-04-22 13:23:00,66.3,37.8,29.97,West,264,12.8,12.8,35,0.00,,,0.00,VWS V13.01,2012-04-22 18:23:00,
2012-04-22 13:28:00,66.6,38.9,29.97,North,354,8.3,8.3,36,0.00,,,0.00,VWS V13.01,2012-04-22 18:28:00,
2012-04-22 13:33:00,67.0,38.5,29.97,WNW,288,8.1,8.7,35,0.00,,,0.00,VWS V13.01,2012-04-22 18:33:00,
2012-04-22 13:38:00,66.5,38.0,29.97,WNW,292,15.0,15.0,35,0.00,,,0.00,VWS V13.01,2012-04-22 18:38:00,
2012-04-22 13:43:00,66.6,38.9,29.97,WNW,289,8.1,8.7,36,0.00,,,0.00,VWS V13.01,2012-04-22 18:43:00,
2012-04-22 13:48:00,66.6,38.2,29.97,WNW,292,12.3,12.3,35,0.00,,,0.00,VWS V13.01,2012-04-22 18:48:00,
2012-04-22 13:54:00,66.5,38.0,29.97,West,277,10.1,15.0,35,0.00,,,0.00,VWS V13.01,2012-04-22 18:54:00,
2012-04-22 13:59:00,66.3,37.8,29.97,NW,315,5.8,10.5,35,0.00,,,0.00,VWS V13.01,2012-04-22 18:59:00,
2012-04-22 14:04:00,65.9,37.5,30.00,West,265,8.7,8.7,35,0.00,,,0.00,VWS V13.01,2012-04-22 19:04:00,
2012-04-22 14:09:00,65.9,37.5,30.00,West,273,11.0,15.9,35,0.00,,,0.00,VWS V13.01,2012-04-22 19:09:00,
2012-04-22 14:14:00,65.9,37.5,30.00,NW,306,7.6,8.1,35,0.00,,,0.00,VWS V13.01,2012-04-22 19:14:00,
2012-04-22 14:19:00,66.1,38.4,30.00,NW,317,8.7,12.3,36,0.00,,,0.00,VWS V13.01,2012-04-22 19:19:00,
2012-04-22 14:24:00,66.1,37.7,30.00,NW,304,10.5,15.0,35,0.00,,,0.00,VWS V13.01,2012-04-22 19:24:00,
2012-04-22 14:29:00,66.3,38.6,30.00,NW,321,8.1,12.3,36,0.00,,,0.00,VWS V13.01,2012-04-22 19:29:00,
2012-04-22 14:33:00,66.1,38.4,30.00,WNW,299,10.5,15.9,36,0.00,,,0.00,VWS V13.01,2012-04-22 19:33:00,
2012-04-22 14:39:00,66.1,38.4,30.00,NNW,345,9.2,14.5,36,0.00,,,0.00,VWS V13.01,2012-04-22 19:39:00,
2012-04-22 14:44:00,65.9,38.2,30.00,West,259,5.4,14.5,36,0.00,,,0.00,VWS V13.01,2012-04-22 19:44:00,
2012-04-22 14:49:00,65.7,38.1,30.00,WNW,284,9.6,12.3,36,0.00,,,0.00,VWS V13.01,2012-04-22 19:49:00,
2012-04-22 14:54:00,65.6,37.9,30.00,North,8,8.7,8.7,36,0.00,,,0.00,VWS V13.01,2012-04-22 19:54:00,
2012-04-22 14:59:00,66.1,38.4,30.00,NNW,328,10.5,10.5,36,0.00,,,0.00,VWS V13.01,2012-04-22 19:59:00,
2012-04-22 15:04:00,65.7,38.1,30.00,WNW,301,8.7,8.7,36,0.00,,,0.00,VWS V13.01,2012-04-22 20:04:00,
2012-04-22 15:09:00,65.6,37.9,30.00,NNW,335,6.3,10.1,36,0.00,,,0.00,VWS V13.01,2012-04-22 20:09:00,
2012-04-22 15:14:00,65.2,37.6,30.00,NNW,332,8.7,15.0,36,0.00,,,0.00,VWS V13.01,2012-04-22 20:14:00,
2012-04-22 15:19:00,64.8,38.0,30.00,NW,321,6.3,11.0,37,0.00,,,0.00,VWS V13.01,2012-04-22 20:19:00,
2012-04-22 15:24:00,65.2,37.6,30.00,NW,306,10.5,10.5,36,0.00,,,0.00,VWS V13.01,2012-04-22 20:24:00,
2012-04-22 15:29:00,65.6,37.9,30.00,NW,311,5.4,5.4,36,0.00,,,0.00,VWS V13.01,2012-04-22 20:29:00,
2012-04-22 15:34:00,65.6,37.9,30.00,NW,304,7.6,10.5,36,0.00,,,0.00,VWS V13.01,2012-04-22 20:34:00,
2012-04-22 15:39:00,65.4,37.8,30.00,NW,308,10.5,10.5,36,0.00,,,0.00,VWS V13.01,2012-04-22 20:39:00,
2012-04-22 15:44:00,64.5,37.0,30.00,NW,305,10.5,11.0,36,0.00,,,0.00,VWS V13.01,2012-04-22 20:44:00,
2012-04-22 15:49:00,64.7,37.1,30.00,NW,317,11.0,12.8,36,0.00,,,0.00,VWS V13.01,2012-04-22 20:49:00,
2012-04-22 15:54:00,65.2,37.6,30.00,NNW,331,8.7,8.7,36,0.00,,,0.00,VWS V13.01,2012-04-22 20:54:00,
2012-04-22 15:59:00,64.5,37.0,30.00,NNE,12,8.3,9.2,36,0.00,,,0.00,VWS V13.01,2012-04-22 20:59:00,
2012-04-22 16:04:00,64.1,36.6,30.00,NW,309,12.3,12.3,36,0.00,,,0.00,VWS V13.01,2012-04-22 21:04:00,
2012-04-22 16:09:00,63.6,36.2,30.00,NW,310,14.1,17.0,36,0.00,,,0.00,VWS V13.01,2012-04-22 21:09:00,
2012-04-22 16:14:00,63.8,36.3,30.03,WNW,302,12.8,17.9,36,0.00,,,0.00,VWS V13.01,2012-04-22 21:14:00,
2012-04-22 16:19:00,63.6,36.2,30.03,NW,304,8.7,8.7,36,0.00,,,0.00,VWS V13.01,2012-04-22 21:19:00,
2012-04-22 16:24:00,63.9,36.5,30.03,NW,320,7.6,11.0,36,0.00,,,0.00,VWS V13.01,2012-04-22 21:24:00,
2012-04-22 16:29:00,63.9,36.5,30.03,WNW,302,6.3,8.7,36,0.00,,,0.00,VWS V13.01,2012-04-22 21:29:00,
2012-04-22 16:34:00,63.8,37.0,30.03,NW,304,5.8,8.3,37,0.00,,,0.00,VWS V13.01,2012-04-22 21:34:00,
2012-04-22 16:39:00,63.8,36.3,30.03,NW,311,10.1,10.1,36,0.00,,,0.00,VWS V13.01,2012-04-22 21:39:00,
2012-04-22 16:44:00,63.8,36.3,30.03,WNW,292,11.9,11.9,36,0.00,,,0.00,VWS V13.01,2012-04-22 21:44:00,
2012-04-22 16:49:00,63.9,36.5,30.03,NW,313,8.1,8.1,36,0.00,,,0.00,VWS V13.01,2012-04-22 21:49:00,
2012-04-22 16:54:00,63.4,36.7,30.03,NW,321,3.1,3.1,37,0.00,,,0.00,VWS V13.01,2012-04-22 21:54:00,
2012-04-22 16:59:00,63.8,36.3,30.03,WSW,246,7.2,10.1,36,0.00,,,0.00,VWS V13.01,2012-04-22 21:59:00,
2012-04-22 17:04:00,63.8,36.3,30.03,NW,304,7.6,12.8,36,0.00,,,0.00,VWS V13.01,2012-04-22 22:04:00,
2012-04-22 17:09:00,64.1,36.6,30.03,NW,304,5.8,8.1,36,0.00,,,0.00,VWS V13.01,2012-04-22 22:09:00,
2012-04-22 17:14:00,64.7,37.1,30.03,WNW,299,4.0,6.7,36,0.00,,,0.00,VWS V13.01,2012-04-22 22:14:00,
2012-04-22 17:19:00,63.4,36.0,30.03,NNE,14,6.3,8.3,36,0.00,,,0.00,VWS V13.01,2012-04-22 22:19:00,
2012-04-22 17:24:00,63.2,36.5,30.03,NW,324,5.4,8.1,37,0.00,,,0.00,VWS V13.01,2012-04-22 22:24:00,
2012-04-22 17:29:00,63.6,36.2,30.03,NNW,336,10.1,10.1,36,0.00,,,0.00,VWS V13.01,2012-04-22 22:29:00,
2012-04-22 17:34:00,63.2,36.5,30.03,NNW,343,8.1,8.1,37,0.00,,,0.00,VWS V13.01,2012-04-22 22:34:00,
2012-04-22 17:39:00,63.4,36.0,30.03,WNW,299,5.4,5.8,36,0.00,,,0.00,VWS V13.01,2012-04-22 22:39:00,
2012-04-22 17:44:00,63.2,36.5,30.03,WNW,299,8.7,8.7,37,0.00,,,0.00,VWS V13.01,2012-04-22 22:44:00,
2012-04-22 17:49:00,62.9,35.5,30.03,NW,304,15.4,15.4,36,0.00,,,0.00,VWS V13.01,2012-04-22 22:49:00,
2012-04-22 17:54:00,62.0,34.7,30.03,WSW,241,11.0,11.0,36,0.00,,,0.00,VWS V13.01,2012-04-22 22:54:00,
2012-04-22 17:59:00,62.0,35.4,30.03,WNW,293,8.7,8.7,37,0.00,,,0.00,VWS V13.01,2012-04-22 22:59:00,
2012-04-22 18:04:00,62.1,35.6,30.03,WNW,300,12.8,15.9,37,0.00,,,0.00,VWS V13.01,2012-04-22 23:04:00,
2012-04-22 18:09:00,61.8,35.3,30.03,WNW,289,8.3,8.7,37,0.00,,,0.00,VWS V13.01,2012-04-22 23:09:00,
2012-04-22 18:14:00,62.0,35.4,30.03,NNW,345,8.3,12.3,37,0.00,,,0.00,VWS V13.01,2012-04-22 23:14:00,
2012-04-22 18:19:00,61.2,34.8,30.03,NW,313,8.1,11.0,37,0.00,,,0.00,VWS V13.01,2012-04-22 23:19:00,
2012-04-22 18:24:00,61.1,34.6,30.03,WNW,301,6.3,8.3,37,0.00,,,0.00,VWS V13.01,2012-04-22 23:24:00,
2012-04-22 18:29:00,60.9,34.5,30.06,NW,320,4.9,7.6,37,0.00,,,0.00,VWS V13.01,2012-04-22 23:29:00,
2012-04-22 18:34:00,60.7,34.3,30.06,West,274,8.1,8.1,37,0.00,,,0.00,VWS V13.01,2012-04-22 23:34:00,
2012-04-22 18:40:00,60.7,34.3,30.06,NW,306,5.4,6.3,37,0.00,,,0.00,VWS V13.01,2012-04-22 23:40:00,
2012-04-22 18:45:00,60.5,34.8,30.06,NW,318,3.1,4.0,38,0.00,,,0.00,VWS V13.01,2012-04-22 23:45:00,
2012-04-22 18:50:00,60.5,34.8,30.06,NNW,342,4.0,4.9,38,0.00,,,0.00,VWS V13.01,2012-04-22 23:50:00,
2012-04-22 18:55:00,60.5,34.8,30.06,WNW,291,4.9,6.3,38,0.00,,,0.00,VWS V13.01,2012-04-22 23:55:00,
2012-04-22 18:56:00,60.5,34.8,30.06,NW,308,6.7,6.7,38,0.00,,,0.00,VWS V13.01,2012-04-22 23:56:00,
2012-04-22 19:01:00,60.3,34.0,30.03,NW,325,5.4,13.6,37,0.00,,,0.00,VWS V13.01,2012-04-23 00:01:00,
2012-04-22 19:06:00,60.3,34.0,30.03,NW,322,11.0,15.0,37,0.00,,,0.00,VWS V13.01,2012-04-23 00:06:00,
2012-04-22 19:11:00,60.3,34.0,30.03,NW,313,8.1,8.1,37,0.00,,,0.00,VWS V13.01,2012-04-23 00:11:00,
2012-04-22 19:16:00,60.2,33.8,30.06,NNW,327,4.0,5.8,37,0.00,,,0.00,VWS V13.01,2012-04-23 00:16:00,
2012-04-22 19:21:00,60.0,34.3,30.06,NW,308,3.1,4.0,38,0.00,,,0.00,VWS V13.01,2012-04-23 00:21:00,
2012-04-22 19:26:00,60.0,34.3,30.06,NNE,12,3.1,8.3,38,0.00,,,0.00,VWS V13.01,2012-04-23 00:26:00,
2012-04-22 19:31:00,59.8,34.2,30.06,NW,313,3.1,4.9,38,0.00,,,0.00,VWS V13.01,2012-04-23 00:31:00,
2012-04-22 19:36:00,59.4,33.8,30.06,NW,320,3.6,4.0,38,0.00,,,0.00,VWS V13.01,2012-04-23 00:36:00,
2012-04-22 19:41:00,59.3,33.7,30.06,NNW,333,4.0,4.0,38,0.00,,,0.00,VWS V13.01,2012-04-23 00:41:00,
2012-04-22 19:46:00,59.1,33.5,30.06,North,352,5.8,10.5,38,0.00,,,0.00,VWS V13.01,2012-04-23 00:46:00,
2012-04-22 19:52:00,58.9,33.4,30.06,NW,305,8.1,8.1,38,0.00,,,0.00,VWS V13.01,2012-04-23 00:52:00,
2012-04-22 19:57:00,58.5,33.0,30.06,WNW,298,3.6,3.6,38,0.00,,,0.00,VWS V13.01,2012-04-23 00:57:00,
2012-04-22 20:02:00,58.2,33.4,30.06,NW,312,2.7,2.7,39,0.00,,,0.00,VWS V13.01,2012-04-23 01:02:00,
2012-04-22 20:07:00,57.8,33.0,30.06,NW,315,3.1,3.1,39,0.00,,,0.00,VWS V13.01,2012-04-23 01:07:00,
2012-04-22 20:12:00,57.6,32.9,30.06,NNW,331,3.1,3.6,39,0.00,,,0.00,VWS V13.01,2012-04-23 01:12:00,
2012-04-22 20:17:00,57.5,33.3,30.09,NW,315,2.7,3.1,40,0.00,,,0.00,VWS V13.01,2012-04-23 01:17:00,
2012-04-22 20:22:00,57.3,33.2,30.09,WNW,302,3.1,3.1,40,0.00,,,0.00,VWS V13.01,2012-04-23 01:22:00,
2012-04-22 20:27:00,57.3,33.2,30.09,WNW,301,3.1,3.6,40,0.00,,,0.00,VWS V13.01,2012-04-23 01:27:00,
2012-04-22 20:32:00,57.3,33.2,30.09,NW,311,2.2,3.1,40,0.00,,,0.00,VWS V13.01,2012-04-23 01:32:00,
2012-04-22 20:37:00,56.9,33.5,30.09,WNW,294,3.1,3.6,41,0.00,,,0.00,VWS V13.01,2012-04-23 01:37:00,
2012-04-22 20:42:00,56.9,32.9,30.09,WNW,289,4.9,4.9,40,0.00,,,0.00,VWS V13.01,2012-04-23 01:42:00,
2012-04-22 20:47:00,57.1,33.6,30.09,WNW,296,3.6,4.0,41,0.00,,,0.00,VWS V13.01,2012-04-23 01:47:00,
2012-04-22 20:52:00,56.7,33.3,30.09,NW,310,2.2,2.7,41,0.00,,,0.00,VWS V13.01,2012-04-23 01:52:00,
2012-04-22 20:57:00,56.6,33.8,30.09,NW,315,2.7,2.7,42,0.00,,,0.00,VWS V13.01,2012-04-23 01:57:00,
2012-04-22 21:02:00,56.2,33.4,30.09,WNW,303,2.7,4.0,42,0.00,,,0.00,VWS V13.01,2012-04-23 02:02:00,
2012-04-22 21:07:00,56.0,33.9,30.09,NW,304,2.7,2.7,43,0.00,,,0.00,VWS V13.01,2012-04-23 02:07:00,
2012-04-22 21:12:00,55.8,34.3,30.09,WNW,294,4.0,4.0,44,0.00,,,0.00,VWS V13.01,2012-04-23 02:12:00,
2012-04-22 21:17:00,56.0,35.0,30.09,NW,305,2.2,2.2,45,0.00,,,0.00,VWS V13.01,2012-04-23 02:17:00,
2012-04-22 21:22:00,55.5,35.1,30.09,NW,313,2.7,3.1,46,0.00,,,0.00,VWS V13.01,2012-04-23 02:22:00,
2012-04-22 21:27:00,55.3,35.4,30.09,NW,312,0.0,0.0,47,0.00,,,0.00,VWS V13.01,2012-04-23 02:27:00,
2012-04-22 21:32:00,54.8,35.5,30.09,NNW,337,0.0,0.0,48,0.00,,,0.00,VWS V13.01,2012-04-23 02:32:00,
2012-04-22 21:37:00,54.4,35.7,30.09,WNW,302,0.0,0.0,49,0.00,,,0.00,VWS V13.01,2012-04-23 02:37:00,
2012-04-22 21:42:00,53.7,36.0,30.09,NW,322,2.7,2.7,51,0.00,,,0.00,VWS V13.01,2012-04-23 02:42:00,
2012-04-22 21:47:00,53.0,36.3,30.12,NW,320,2.7,2.7,53,0.00,,,0.00,VWS V13.01,2012-04-23 02:47:00,
2012-04-22 21:52:00,53.0,34.8,30.12,WNW,303,3.6,3.6,50,0.00,,,0.00,VWS V13.01,2012-04-23 02:52:00,
2012-04-22 21:57:00,53.9,35.7,30.12,NW,318,0.0,0.0,50,0.00,,,0.00,VWS V13.01,2012-04-23 02:57:00,
2012-04-22 22:02:00,54.4,35.7,30.12,NW,318,2.7,3.1,49,0.00,,,0.00,VWS V13.01,2012-04-23 03:02:00,
2012-04-22 22:07:00,55.3,36.0,30.12,NW,320,5.8,6.3,48,0.00,,,0.00,VWS V13.01,2012-04-23 03:07:00,
2012-04-22 22:12:00,55.7,36.3,30.12,West,278,5.4,5.4,48,0.00,,,0.00,VWS V13.01,2012-04-23 03:12:00,
2012-04-22 22:17:00,55.7,36.3,30.12,NW,306,4.0,4.0,48,0.00,,,0.00,VWS V13.01,2012-04-23 03:17:00,
2012-04-22 22:19:00,55.5,36.1,30.12,WNW,287,5.4,5.4,48,0.00,,,0.00,VWS V13.01,2012-04-23 03:19:00,
2012-04-22 22:24:00,55.1,35.8,30.12,NW,309,4.9,5.8,48,0.00,,,0.00,VWS V13.01,2012-04-23 03:24:00,
2012-04-22 22:29:00,55.1,35.8,30.12,WNW,298,4.9,5.8,48,0.00,,,0.00,VWS V13.01,2012-04-23 03:29:00,
2012-04-22 22:34:00,55.1,35.8,30.12,NW,311,4.0,6.3,48,0.00,,,0.00,VWS V13.01,2012-04-23 03:34:00,
2012-04-22 22:39:00,54.9,35.6,30.12,WNW,288,5.4,6.3,48,0.00,,,0.00,VWS V13.01,2012-04-23 03:39:00,
2012-04-22 22:44:00,54.8,36.0,30.12,NNW,344,4.0,5.4,49,0.00,,,0.00,VWS V13.01,2012-04-23 03:44:00,
2012-04-22 22:49:00,54.8,35.5,30.12,WNW,297,4.0,7.6,48,0.00,,,0.00,VWS V13.01,2012-04-23 03:49:00,
2012-04-22 22:54:00,54.2,35.5,30.12,NW,305,3.1,5.4,49,0.00,,,0.00,VWS V13.01,2012-04-23 03:54:00,
2012-04-22 22:59:00,54.0,35.8,30.12,WNW,298,2.7,4.0,50,0.00,,,0.00,VWS V13.01,2012-04-23 03:59:00,
2012-04-22 23:00:00,54.0,35.8,30.12,WNW,290,4.9,5.4,50,0.00,,,0.00,VWS V13.01,2012-04-23 04:00:00,
2012-04-22 23:05:00,53.7,35.5,30.12,NW,306,3.6,5.4,50,0.00,,,0.00,VWS V13.01,2012-04-23 04:05:00,
2012-04-22 23:10:00,53.9,35.7,30.12,WNW,300,2.7,3.1,50,0.00,,,0.00,VWS V13.01,2012-04-23 04:10:00,
2012-04-22 23:15:00,53.7,35.0,30.12,WNW,293,0.0,3.6,49,0.00,,,0.00,VWS V13.01,2012-04-23 04:15:00,
2012-04-22 23:20:00,53.9,35.2,30.12,NW,320,0.0,2.2,49,0.00,,,0.00,VWS V13.01,2012-04-23 04:20:00,
2012-04-22 23:25:00,53.5,35.3,30.12,North,356,0.0,0.0,50,0.00,,,0.00,VWS V13.01,2012-04-23 04:25:00,
2012-04-22 23:30:00,53.3,35.2,30.12,North,10,3.1,3.1,50,0.00,,,0.00,VWS V13.01,2012-04-23 04:30:00,
2012-04-22 23:35:00,52.8,35.2,30.12,North,3,2.2,2.2,51,0.00,,,0.00,VWS V13.01,2012-04-23 04:35:00,
2012-04-22 23:40:00,52.4,35.3,30.12,North,8,0.0,0.0,52,0.00,,,0.00,VWS V13.01,2012-04-23 04:40:00,
2012-04-22 23:46:00,51.9,35.3,30.12,NNW,330,0.0,0.0,53,0.00,,,0.00,VWS V13.01,2012-04-23 04:46:00,
2012-04-22 23:51:00,51.3,34.8,30.12,North,360,0.0,0.0,53,0.00,,,0.00,VWS V13.01,2012-04-23 04:51:00,
2012-04-22 23:56:00,51.0,34.9,30.12,NW,322,0.0,0.0,54,0.00,,,0.00,VWS V13.01,2012-04-23 04:56:00,